Time;durP1;ratioP1;P1;durP2;ratioP2;P2;SDS_P1;SDS_P2;PMS_P1;PMS_P2;Temp;Humidity;BMP_temperature;BMP_pressure;BME280_temperature;BME280_humidity;BME280_pressure;Samples;Min_cycle;Max_cycle;Signal;HPM_P1;HPM_P2
2023/10/15 00:02:27;;;;;;;;;;;20.10;58.10;;;;;;217653;1291;22626;-65
2023/10/15 00:07:30;;;;;;;;;;;20.10;58.30;;;;;;217388;1291;23748;-64
2023/10/15 00:12:33;;;;;;;;;;;20.10;58.20;;;;;;217502;1291;25573;-64
2023/10/15 00:17:35;;;;;;;;;;;20.10;58.00;;;;;;217600;1298;22536;-64
2023/10/15 00:22:39;;;;;;;;;;;20.10;58.50;;;;;;217404;1292;24273;-63
2023/10/15 00:27:42;;;;;;;;;;;20.10;58.10;;;;;;217765;1291;22626;-64
2023/10/15 00:32:46;;;;;;;;;;;20.00;58.30;;;;;;217578;1285;24549;-65
2023/10/15 00:37:55;;;;;;;;;;;20.10;58.20;;;;;;217426;1298;24081;-63
2023/10/15 00:42:59;;;;;;;;;;;20.00;58.00;;;;;;217498;1294;22527;-64
2023/10/15 00:48:07;;;;;;;;;;;20.00;58.10;;;;;;217510;1296;24059;-64
2023/10/15 00:53:22;;;;;;;;;;;20.00;58.00;;;;;;217537;1297;25421;-64
2023/10/15 00:58:33;;;;;;;;;;;20.00;58.00;;;;;;217543;1285;24260;-65
2023/10/15 01:03:37;;;;;;;;;;;20.00;58.20;;;;;;217421;1297;26550;-65
2023/10/15 01:08:41;;;;;;;;;;;20.00;58.10;;;;;;217338;1284;23750;-64
2023/10/15 01:13:44;;;;;;;;;;;20.00;58.20;;;;;;217538;1298;22784;-64
2023/10/15 01:24:08;;;;;;;;;;;20.00;58.10;;;;;;217424;1291;24311;-65
2023/10/15 01:29:15;;;;;;;;;;;20.00;58.10;;;;;;217440;1294;24432;-64
2023/10/15 01:34:21;;;;;;;;;;;19.90;58.20;;;;;;217416;1298;25905;-64
2023/10/15 01:39:45;;;;;;;;;;;19.90;58.10;;;;;;217385;1298;24282;-64
2023/10/15 01:44:48;;;;;;;;;;;19.90;58.20;;;;;;217277;1297;22564;-64
2023/10/15 01:49:56;;;;;;;;;;;19.90;58.00;;;;;;217498;1291;22554;-64
2023/10/15 01:55:04;;;;;;;;;;;20.00;57.80;;;;;;217322;1285;25370;-64
2023/10/15 02:00:13;;;;;;;;;;;19.90;57.80;;;;;;217260;1296;22530;-65
2023/10/15 02:05:29;;;;;;;;;;;19.90;57.70;;;;;;217585;1288;22527;-65
2023/10/15 02:10:32;;;;;;;;;;;20.00;57.80;;;;;;217257;1291;24279;-65
2023/10/15 02:15:39;;;;;;;;;;;19.90;58.30;;;;;;217443;1297;23915;-64
2023/10/15 02:20:44;;;;;;;;;;;19.90;57.80;;;;;;217556;1298;22538;-65
2023/10/15 02:25:56;;;;;;;;;;;19.90;57.60;;;;;;217239;1291;24288;-64
2023/10/15 02:31:14;;;;;;;;;;;19.90;57.50;;;;;;217382;1291;24248;-65
2023/10/15 02:36:17;;;;;;;;;;;19.90;57.70;;;;;;217510;1282;25643;-67
2023/10/15 02:41:21;;;;;;;;;;;19.90;57.60;;;;;;217491;1295;22543;-65
2023/10/15 02:46:36;;;;;;;;;;;19.90;57.50;;;;;;217480;1295;22789;-60
2023/10/15 02:51:39;;;;;;;;;;;19.80;57.70;;;;;;217442;1298;26621;-61
2023/10/15 02:56:42;;;;;;;;;;;19.80;57.40;;;;;;217573;1285;22535;-61
2023/10/15 03:01:46;;;;;;;;;;;19.80;57.50;;;;;;217368;1298;22604;-61
2023/10/15 03:06:49;;;;;;;;;;;19.80;57.50;;;;;;217085;1285;352025;-62
2023/10/15 03:11:53;;;;;;;;;;;19.80;58.00;;;;;;217391;1297;24795;-61
2023/10/15 03:16:56;;;;;;;;;;;19.80;57.70;;;;;;217423;1298;23932;-61
2023/10/15 03:22:00;;;;;;;;;;;19.80;57.70;;;;;;217410;1282;22550;-61
2023/10/15 03:27:02;;;;;;;;;;;19.80;57.60;;;;;;217427;1295;25553;-61
2023/10/15 03:32:12;;;;;;;;;;;19.70;57.60;;;;;;217492;1294;24445;-61
2023/10/15 03:37:15;;;;;;;;;;;19.70;57.60;;;;;;217473;1295;25348;-61
2023/10/15 03:42:26;;;;;;;;;;;19.70;57.60;;;;;;217544;1291;25396;-61
2023/10/15 03:47:28;;;;;;;;;;;19.70;57.50;;;;;;217612;1298;24320;-61
2023/10/15 03:52:34;;;;;;;;;;;19.70;57.60;;;;;;217446;1294;22521;-61
2023/10/15 03:57:37;;;;;;;;;;;19.70;57.50;;;;;;217514;1286;25590;-64
2023/10/15 04:02:54;;;;;;;;;;;19.70;57.50;;;;;;217487;1298;22668;-64
2023/10/15 04:07:57;;;;;;;;;;;19.70;57.50;;;;;;217435;1295;22536;-65
2023/10/15 04:13:00;;;;;;;;;;;19.60;57.70;;;;;;217401;1298;22590;-65
2023/10/15 04:18:03;;;;;;;;;;;19.60;57.50;;;;;;217513;1282;22534;-65
2023/10/15 04:23:11;;;;;;;;;;;19.70;57.50;;;;;;217402;1295;24258;-64
2023/10/15 04:28:19;;;;;;;;;;;19.60;57.50;;;;;;217261;1292;22517;-64
2023/10/15 04:33:25;;;;;;;;;;;19.60;57.40;;;;;;217550;1293;22553;-65
2023/10/15 04:38:28;;;;;;;;;;;19.60;57.50;;;;;;217439;1298;22556;-64
2023/10/15 04:43:41;;;;;;;;;;;19.60;57.40;;;;;;217359;1294;22524;-64
2023/10/15 04:48:46;;;;;;;;;;;19.60;57.30;;;;;;217386;1282;23882;-65
2023/10/15 04:53:48;;;;;;;;;;;19.60;57.20;;;;;;217115;1294;22538;-65
2023/10/15 04:58:51;;;;;;;;;;;19.60;57.20;;;;;;217271;1294;22540;-64
2023/10/15 05:03:54;;;;;;;;;;;19.60;57.30;;;;;;217226;1292;22534;-65
2023/10/15 05:08:57;;;;;;;;;;;19.60;57.30;;;;;;217594;1290;23913;-64
2023/10/15 05:14:00;;;;;;;;;;;19.50;57.30;;;;;;217385;1292;24471;-65
2023/10/15 05:19:03;;;;;;;;;;;19.60;57.20;;;;;;217492;1297;22680;-64
2023/10/15 05:24:06;;;;;;;;;;;19.50;57.10;;;;;;217280;1295;22639;-64
2023/10/15 05:29:09;;;;;;;;;;;19.50;57.20;;;;;;217304;1298;22537;-65
2023/10/15 05:34:11;;;;;;;;;;;19.50;57.50;;;;;;217488;1298;23644;-66
2023/10/15 05:39:15;;;;;;;;;;;19.50;57.20;;;;;;217430;1298;22627;-64
2023/10/15 05:44:18;;;;;;;;;;;19.40;57.20;;;;;;217291;1288;22544;-64
2023/10/15 05:49:20;;;;;;;;;;;19.50;57.50;;;;;;217186;1286;22634;-64
2023/10/15 05:54:23;;;;;;;;;;;19.50;57.10;;;;;;217130;1292;22546;-66
2023/10/15 05:59:26;;;;;;;;;;;19.40;57.00;;;;;;217369;1298;22534;-65
2023/10/15 06:04:28;;;;;;;;;;;19.40;56.90;;;;;;217374;1295;24262;-63
2023/10/15 06:09:31;;;;;;;;;;;19.40;56.90;;;;;;217373;1294;24104;-65
2023/10/15 06:14:34;;;;;;;;;;;19.40;56.90;;;;;;217409;1298;22538;-64
2023/10/15 06:19:37;;;;;;;;;;;19.40;56.70;;;;;;217360;1288;22541;-65
2023/10/15 06:24:39;;;;;;;;;;;19.40;56.60;;;;;;217283;1295;22546;-63
2023/10/15 06:29:42;;;;;;;;;;;19.40;56.60;;;;;;217335;1298;22539;-63
2023/10/15 06:34:44;;;;;;;;;;;19.40;56.50;;;;;;217335;1298;22552;-63
2023/10/15 06:39:47;;;;;;;;;;;19.50;56.50;;;;;;217342;1298;22678;-63
2023/10/15 06:44:50;;;;;;;;;;;19.60;56.20;;;;;;217240;1298;24329;-64
2023/10/15 06:49:53;;;;;;;;;;;19.60;56.20;;;;;;217255;1290;22552;-65
2023/10/15 06:54:56;;;;;;;;;;;19.60;56.20;;;;;;217342;1298;22533;-64
2023/10/15 06:59:59;;;;;;;;;;;19.60;56.20;;;;;;217336;1298;22538;-64
2023/10/15 07:05:02;;;;;;;;;;;19.60;56.30;;;;;;217387;1294;24247;-64
2023/10/15 07:10:06;;;;;;;;;;;19.60;56.20;;;;;;217598;1294;22858;-64
2023/10/15 07:15:09;;;;;;;;;;;19.60;56.40;;;;;;217481;1298;24275;-63
2023/10/15 07:20:16;;;;;;;;;;;19.60;56.50;;;;;;217386;1292;22638;-65
2023/10/15 07:25:20;;;;;;;;;;;19.60;57.00;;;;;;217561;1282;22544;-64
2023/10/15 07:30:23;;;;;;;;;;;19.40;56.90;;;;;;217269;1291;22534;-64
2023/10/15 07:35:28;;;;;;;;;;;19.50;56.70;;;;;;217390;1294;22547;-64
2023/10/15 07:40:32;;;;;;;;;;;19.60;57.00;;;;;;217459;1295;22607;-66
2023/10/15 07:45:37;;;;;;;;;;;19.60;56.50;;;;;;217584;1298;22661;-66
2023/10/15 07:50:43;;;;;;;;;;;19.60;56.30;;;;;;217133;1297;22586;-64
2023/10/15 07:55:46;;;;;;;;;;;19.50;56.50;;;;;;217309;1297;22596;-64
2023/10/15 08:00:53;;;;;;;;;;;19.60;56.40;;;;;;217566;1291;23196;-65
2023/10/15 08:06:14;;;;;;;;;;;19.70;56.10;;;;;;217247;1295;22531;-65
2023/10/15 08:11:20;;;;;;;;;;;19.70;56.00;;;;;;217339;1298;22568;-63
2023/10/15 08:16:22;;;;;;;;;;;19.80;55.80;;;;;;217272;1298;22549;-66
2023/10/15 08:21:25;;;;;;;;;;;19.90;55.70;;;;;;217286;1297;22649;-64
2023/10/15 08:26:29;;;;;;;;;;;19.90;55.70;;;;;;217272;1296;22781;-65
2023/10/15 08:31:31;;;;;;;;;;;19.90;54.90;;;;;;217231;1295;24319;-64
2023/10/15 08:36:34;;;;;;;;;;;20.10;54.90;;;;;;217363;1298;22554;-62
2023/10/15 08:41:40;;;;;;;;;;;20.10;54.90;;;;;;217325;1295;22631;-60
2023/10/15 08:46:43;;;;;;;;;;;20.20;54.80;;;;;;217447;1297;22560;-61
2023/10/15 08:51:47;;;;;;;;;;;20.30;54.70;;;;;;217390;1298;22546;-61
2023/10/15 08:56:49;;;;;;;;;;;20.20;54.70;;;;;;217401;1298;22531;-61
2023/10/15 09:01:54;;;;;;;;;;;20.30;54.70;;;;;;217377;1295;22550;-60
2023/10/15 09:07:01;;;;;;;;;;;20.30;54.90;;;;;;217399;1298;22550;-66
2023/10/15 09:12:06;;;;;;;;;;;20.30;54.70;;;;;;217395;1284;24083;-60
2023/10/15 09:17:14;;;;;;;;;;;20.30;54.80;;;;;;217485;1298;22530;-61
2023/10/15 09:22:17;;;;;;;;;;;20.30;54.60;;;;;;217467;1298;22544;-61
2023/10/15 09:27:20;;;;;;;;;;;20.30;54.80;;;;;;217219;1298;26538;-61
2023/10/15 09:32:24;;;;;;;;;;;20.30;54.60;;;;;;217362;1298;22576;-61
2023/10/15 09:37:28;;;;;;;;;;;20.30;54.50;;;;;;217360;1296;22534;-64
2023/10/15 09:42:33;;;;;;;;;;;20.20;54.50;;;;;;217567;1298;22673;-60
2023/10/15 09:47:39;;;;;;;;;;;20.20;55.10;;;;;;217280;1298;22530;-61
2023/10/15 09:52:44;;;;;;;;;;;20.20;54.90;;;;;;217506;1297;24251;-61
2023/10/15 09:57:47;;;;;;;;;;;20.20;54.80;;;;;;217331;1295;22601;-60
2023/10/15 10:02:57;;;;;;;;;;;20.30;54.70;;;;;;217293;1298;22751;-59
2023/10/15 10:08:18;;;;;;;;;;;20.40;54.90;;;;;;217517;1298;25511;-60
2023/10/15 10:13:21;;;;;;;;;;;20.40;54.30;;;;;;217373;1298;22534;-61
2023/10/15 10:18:24;;;;;;;;;;;20.50;54.20;;;;;;217224;1298;22560;-61
2023/10/15 10:23:27;;;;;;;;;;;20.50;54.20;;;;;;217314;1294;25354;-61
2023/10/15 10:28:50;;;;;;;;;;;20.50;54.20;;;;;;217235;1298;22534;-61
2023/10/15 10:33:54;;;;;;;;;;;20.60;54.00;;;;;;217410;1298;22562;-61
2023/10/15 10:39:07;;;;;;;;;;;20.70;54.20;;;;;;217583;1295;22560;-62
2023/10/15 10:44:12;;;;;;;;;;;20.70;54.30;;;;;;217379;1283;22549;-61
2023/10/15 10:49:28;;;;;;;;;;;20.70;53.70;;;;;;217595;1285;22534;-60
2023/10/15 10:54:31;;;;;;;;;;;20.70;53.70;;;;;;217543;1298;22547;-62
2023/10/15 10:59:38;;;;;;;;;;;20.70;53.60;;;;;;217239;1298;22593;-63
2023/10/15 11:04:41;;;;;;;;;;;20.60;53.60;;;;;;217395;1297;22797;-63
2023/10/15 11:09:44;;;;;;;;;;;20.60;53.60;;;;;;217420;1285;22538;-64
2023/10/15 11:14:47;;;;;;;;;;;20.60;53.40;;;;;;217613;1294;22588;-64
2023/10/15 11:19:50;;;;;;;;;;;20.60;53.40;;;;;;217289;1285;22530;-64
2023/10/15 11:24:52;;;;;;;;;;;20.50;53.50;;;;;;217278;1297;22530;-64
2023/10/15 11:29:55;;;;;;;;;;;20.50;53.40;;;;;;217298;1297;24122;-64
2023/10/15 11:34:58;;;;;;;;;;;20.40;53.50;;;;;;217549;1297;22600;-64
2023/10/15 11:40:04;;;;;;;;;;;20.50;53.40;;;;;;217330;1285;24318;-65
2023/10/15 11:45:18;;;;;;;;;;;20.50;53.30;;;;;;217205;1297;22812;-64
2023/10/15 11:50:21;;;;;;;;;;;20.50;53.10;;;;;;217490;1297;25445;-63
2023/10/15 11:55:24;;;;;;;;;;;20.50;53.10;;;;;;217525;1297;25425;-65
2023/10/15 12:00:39;;;;;;;;;;;20.40;53.30;;;;;;217225;1298;22580;-65
2023/10/15 12:05:44;;;;;;;;;;;20.40;53.50;;;;;;217455;1297;22535;-64
2023/10/15 12:10:47;;;;;;;;;;;20.40;53.50;;;;;;217399;1295;25262;-61
2023/10/15 12:15:50;;;;;;;;;;;20.40;53.30;;;;;;217312;1291;22530;-61
2023/10/15 12:20:53;;;;;;;;;;;20.40;53.50;;;;;;217502;1298;22661;-60
2023/10/15 12:25:56;;;;;;;;;;;20.40;53.50;;;;;;217522;1294;22680;-60
2023/10/15 12:30:59;;;;;;;;;;;20.40;53.50;;;;;;217358;1297;26578;-59
2023/10/15 12:36:03;;;;;;;;;;;20.40;53.50;;;;;;217573;1298;22534;-59
2023/10/15 12:41:06;;;;;;;;;;;20.40;53.60;;;;;;217656;1285;24247;-62
2023/10/15 12:46:09;;;;;;;;;;;20.40;53.40;;;;;;217334;1298;22551;-60
2023/10/15 12:51:12;;;;;;;;;;;20.40;53.60;;;;;;217519;1285;26635;-61
2023/10/15 12:56:15;;;;;;;;;;;20.30;53.50;;;;;;217376;1293;22825;-60
2023/10/15 13:01:20;;;;;;;;;;;20.40;53.60;;;;;;217430;1295;24278;-61
2023/10/15 13:06:23;;;;;;;;;;;20.40;53.40;;;;;;217545;1295;22543;-61
2023/10/15 13:11:27;;;;;;;;;;;20.40;53.60;;;;;;217450;1298;23950;-62
2023/10/15 13:16:30;;;;;;;;;;;20.50;53.10;;;;;;217408;1291;22960;-62
2023/10/15 13:21:33;;;;;;;;;;;20.50;53.30;;;;;;217493;1298;22634;-60
2023/10/15 13:26:39;;;;;;;;;;;20.40;53.40;;;;;;217251;1298;22550;-61
2023/10/15 13:31:43;;;;;;;;;;;20.40;53.70;;;;;;217302;1296;22524;-63
2023/10/15 13:36:48;;;;;;;;;;;20.50;53.30;;;;;;217424;1283;22688;-62
2023/10/15 13:41:51;;;;;;;;;;;20.50;53.10;;;;;;217464;1298;22573;-61
2023/10/15 13:46:54;;;;;;;;;;;20.50;53.10;;;;;;217455;1298;24321;-64
2023/10/15 13:51:57;;;;;;;;;;;20.60;53.10;;;;;;217466;1295;25262;-61
2023/10/15 13:57:01;;;;;;;;;;;20.50;53.10;;;;;;217386;1294;24293;-60
2023/10/15 14:02:06;;;;;;;;;;;20.50;53.20;;;;;;217344;1294;22674;-62
2023/10/15 14:07:10;;;;;;;;;;;20.50;53.00;;;;;;217364;1291;25668;-62
2023/10/15 14:12:12;;;;;;;;;;;20.60;53.50;;;;;;217365;1298;25392;-62
2023/10/15 14:17:16;;;;;;;;;;;20.50;52.80;;;;;;217536;1291;22536;-61
2023/10/15 14:22:19;;;;;;;;;;;20.40;52.90;;;;;;217503;1295;22675;-61
2023/10/15 14:27:25;;;;;;;;;;;20.30;53.10;;;;;;217699;1294;25437;-65
2023/10/15 14:32:29;;;;;;;;;;;20.30;53.30;;;;;;217540;1297;22544;-65
2023/10/15 14:37:32;;;;;;;;;;;20.30;53.00;;;;;;217490;1298;22532;-64
2023/10/15 14:42:39;;;;;;;;;;;20.30;53.40;;;;;;217647;1298;23818;-65
2023/10/15 14:47:44;;;;;;;;;;;20.30;53.00;;;;;;217222;1291;23020;-65
2023/10/15 14:52:48;;;;;;;;;;;20.30;53.10;;;;;;217251;1290;22529;-64
2023/10/15 14:58:24;;;;;;;;;;;20.30;52.90;;;;;;221035;1272;22502;31
2023/10/15 15:03:27;;;;;;;;;;;20.30;53.00;;;;;;218398;1270;24594;-62
2023/10/15 15:08:30;;;;;;;;;;;20.30;52.90;;;;;;217955;1285;217413;-62
2023/10/15 15:13:34;;;;;;;;;;;20.30;53.20;;;;;;218092;1295;22528;-63
2023/10/15 15:18:37;;;;;;;;;;;20.20;53.40;;;;;;218225;1295;25366;-63
2023/10/15 15:23:40;;;;;;;;;;;20.20;53.50;;;;;;218376;1295;22575;-62
2023/10/15 15:28:43;;;;;;;;;;;20.10;53.60;;;;;;218103;1292;23953;-63
2023/10/15 15:33:46;;;;;;;;;;;20.00;53.60;;;;;;218029;1295;24257;-63
2023/10/15 15:38:54;;;;;;;;;;;20.00;53.70;;;;;;218101;1295;24292;-63
2023/10/15 15:44:00;;;;;;;;;;;20.00;53.80;;;;;;218548;1293;23362;-63
2023/10/15 15:49:06;;;;;;;;;;;20.00;53.90;;;;;;218150;1292;25131;-64
2023/10/15 15:54:10;;;;;;;;;;;20.00;53.80;;;;;;218356;1289;22543;-63
2023/10/15 15:59:14;;;;;;;;;;;19.90;53.80;;;;;;218113;1288;24429;-63
2023/10/15 16:04:17;;;;;;;;;;;20.00;53.80;;;;;;218513;1286;22792;-63
2023/10/15 16:09:21;;;;;;;;;;;19.90;54.00;;;;;;218125;1295;22625;-64
2023/10/15 16:14:25;;;;;;;;;;;19.90;53.90;;;;;;218149;1280;22528;-63
2023/10/15 16:19:30;;;;;;;;;;;19.90;53.90;;;;;;218189;1293;22528;-64
2023/10/15 16:24:34;;;;;;;;;;;19.90;53.80;;;;;;218571;1292;25324;-64
2023/10/15 16:29:39;;;;;;;;;;;19.90;53.90;;;;;;217969;1295;22532;-63
2023/10/15 16:34:44;;;;;;;;;;;19.90;53.70;;;;;;218496;1295;22530;-64
2023/10/15 16:39:47;;;;;;;;;;;19.90;54.00;;;;;;218323;1292;22639;-64
2023/10/15 16:44:52;;;;;;;;;;;19.90;54.10;;;;;;218121;1295;26528;-63
2023/10/15 16:49:56;;;;;;;;;;;19.90;53.70;;;;;;218443;1295;24355;-63
2023/10/15 16:55:01;;;;;;;;;;;19.90;53.70;;;;;;217815;1295;24221;-62
2023/10/15 17:00:10;;;;;;;;;;;19.80;53.60;;;;;;218296;1295;22535;-63
2023/10/15 17:05:13;;;;;;;;;;;19.90;53.80;;;;;;218071;1288;22526;-62
2023/10/15 17:10:16;;;;;;;;;;;19.80;53.60;;;;;;217999;1290;22541;-63
2023/10/15 17:15:20;;;;;;;;;;;19.80;53.70;;;;;;217939;1294;22547;-62
2023/10/15 17:20:26;;;;;;;;;;;19.80;53.70;;;;;;218056;1292;22542;-63
2023/10/15 17:25:30;;;;;;;;;;;19.80;53.80;;;;;;218494;1294;23105;-63
2023/10/15 17:30:35;;;;;;;;;;;19.70;53.80;;;;;;218285;1289;25271;-63
2023/10/15 17:35:40;;;;;;;;;;;19.70;53.70;;;;;;218205;1290;22552;-63
2023/10/15 17:40:44;;;;;;;;;;;19.70;53.70;;;;;;217957;1290;22541;-62
2023/10/15 17:45:50;;;;;;;;;;;19.70;54.10;;;;;;218103;1295;24273;-63
2023/10/15 17:50:54;;;;;;;;;;;19.70;53.80;;;;;;218256;1295;22541;-63
2023/10/15 17:55:58;;;;;;;;;;;19.70;53.70;;;;;;218389;1295;25229;-62
2023/10/15 18:01:07;;;;;;;;;;;19.60;53.70;;;;;;218641;1295;22804;-63
2023/10/15 18:06:12;;;;;;;;;;;19.60;53.80;;;;;;218248;1289;22550;-64
2023/10/15 18:11:22;;;;;;;;;;;19.70;54.30;;;;;;218585;1289;22526;-64
2023/10/15 18:16:33;;;;;;;;;;;19.70;54.10;;;;;;218282;1289;22524;-64
2023/10/15 18:21:37;;;;;;;;;;;19.60;53.70;;;;;;217839;1292;25232;-62
2023/10/15 18:26:44;;;;;;;;;;;19.60;53.80;;;;;;218346;1295;22842;-63
2023/10/15 18:31:47;;;;;;;;;;;19.60;53.80;;;;;;218687;1289;22694;-63
2023/10/15 18:36:50;;;;;;;;;;;19.60;54.20;;;;;;218087;1289;23923;-63
2023/10/15 18:41:53;;;;;;;;;;;19.50;53.80;;;;;;218303;1295;22585;-64
2023/10/15 18:46:56;;;;;;;;;;;19.50;54.10;;;;;;218328;1295;22642;-62
2023/10/15 18:51:59;;;;;;;;;;;19.50;53.80;;;;;;218229;1295;22521;-62
2023/10/15 18:57:01;;;;;;;;;;;19.50;53.80;;;;;;217945;1292;22539;-64
2023/10/15 19:02:05;;;;;;;;;;;19.50;53.80;;;;;;218711;1292;22524;-63
2023/10/15 19:07:09;;;;;;;;;;;19.50;53.80;;;;;;218202;1295;22646;-63
2023/10/15 19:12:12;;;;;;;;;;;19.50;54.10;;;;;;218446;1280;22551;-63
2023/10/15 19:17:15;;;;;;;;;;;19.40;53.80;;;;;;218545;1295;22534;-62
2023/10/15 19:22:18;;;;;;;;;;;19.40;53.80;;;;;;218507;1292;22653;-63
2023/10/15 19:27:21;;;;;;;;;;;19.40;53.80;;;;;;218200;1295;25366;-63
2023/10/15 19:32:23;;;;;;;;;;;19.40;53.80;;;;;;218192;1290;22541;-63
2023/10/15 19:37:27;;;;;;;;;;;19.40;53.90;;;;;;217883;1295;22537;-62
2023/10/15 19:42:30;;;;;;;;;;;19.40;53.90;;;;;;217987;1295;22523;-62
2023/10/15 19:47:32;;;;;;;;;;;19.40;53.70;;;;;;217864;1295;22530;-63
2023/10/15 19:52:35;;;;;;;;;;;19.40;53.80;;;;;;218307;1295;22547;-64
2023/10/15 19:57:38;;;;;;;;;;;19.30;54.10;;;;;;218323;1295;22524;-63
2023/10/15 20:02:40;;;;;;;;;;;19.30;53.70;;;;;;218223;1295;22536;-62
2023/10/15 20:07:43;;;;;;;;;;;19.30;53.90;;;;;;218198;1286;24275;-63
2023/10/15 20:12:46;;;;;;;;;;;19.30;53.70;;;;;;218210;1295;22527;-64
2023/10/15 20:17:49;;;;;;;;;;;19.30;53.60;;;;;;218253;1280;25342;-63
2023/10/15 20:22:52;;;;;;;;;;;19.40;53.70;;;;;;218160;1292;22531;-67
2023/10/15 20:27:54;;;;;;;;;;;19.30;53.70;;;;;;218082;1294;22711;-62
2023/10/15 20:32:57;;;;;;;;;;;19.20;53.70;;;;;;218194;1295;22547;-62
2023/10/15 20:37:59;;;;;;;;;;;19.30;53.60;;;;;;218418;1292;22523;-63
2023/10/15 20:43:02;;;;;;;;;;;19.30;53.70;;;;;;218233;1279;22540;-63
2023/10/15 20:48:05;;;;;;;;;;;19.30;53.70;;;;;;218251;1295;24740;-62
2023/10/15 20:53:08;;;;;;;;;;;19.20;53.60;;;;;;218144;1289;24294;-62
2023/10/15 20:58:10;;;;;;;;;;;19.20;53.60;;;;;;218090;1295;24221;-63
2023/10/15 21:03:15;;;;;;;;;;;19.20;53.50;;;;;;218083;1292;23962;-64
2023/10/15 21:08:18;;;;;;;;;;;19.20;53.80;;;;;;218184;1295;22869;-62
2023/10/15 21:13:21;;;;;;;;;;;19.10;54.10;;;;;;217693;1291;22780;-64
2023/10/15 21:18:24;;;;;;;;;;;19.20;53.70;;;;;;218098;1295;22668;-64
2023/10/15 21:23:27;;;;;;;;;;;19.20;53.60;;;;;;218200;1295;22550;-63
2023/10/15 21:28:29;;;;;;;;;;;19.20;53.70;;;;;;217913;1295;24069;-63
2023/10/15 21:33:32;;;;;;;;;;;19.10;53.60;;;;;;218126;1294;22749;-63
2023/10/15 21:38:34;;;;;;;;;;;19.10;53.60;;;;;;218258;1295;22534;-63
2023/10/15 21:43:37;;;;;;;;;;;19.10;53.70;;;;;;218121;1292;22588;-62
2023/10/15 21:48:40;;;;;;;;;;;19.10;53.50;;;;;;218250;1295;22611;-62
2023/10/15 21:53:43;;;;;;;;;;;19.10;53.60;;;;;;218199;1292;24215;-63
2023/10/15 21:58:45;;;;;;;;;;;19.10;53.60;;;;;;218186;1279;22793;-62
2023/10/15 22:03:47;;;;;;;;;;;19.10;53.50;;;;;;218178;1292;23937;-63
2023/10/15 22:08:51;;;;;;;;;;;19.10;53.60;;;;;;218052;1295;22943;-63
2023/10/15 22:14:03;;;;;;;;;;;19.00;53.90;;;;;;218046;1282;22530;-63
2023/10/15 22:19:05;;;;;;;;;;;19.00;53.50;;;;;;218147;1279;22539;-62
2023/10/15 22:24:12;;;;;;;;;;;19.00;53.80;;;;;;218204;1295;25147;-61
2023/10/15 22:29:15;;;;;;;;;;;19.00;53.60;;;;;;218081;1282;22596;-62
2023/10/15 22:34:25;;;;;;;;;;;19.00;53.50;;;;;;218021;1295;23038;-64
2023/10/15 22:39:29;;;;;;;;;;;19.00;53.50;;;;;;218374;1292;22663;-61
2023/10/15 22:44:31;;;;;;;;;;;18.90;53.50;;;;;;218016;1292;24264;-62
2023/10/15 22:49:34;;;;;;;;;;;18.90;53.60;;;;;;218050;1289;24078;-62
2023/10/15 22:54:37;;;;;;;;;;;18.90;53.60;;;;;;218193;1295;23908;-62
2023/10/15 22:59:39;;;;;;;;;;;18.90;53.60;;;;;;218332;1294;22572;-62
2023/10/15 23:04:42;;;;;;;;;;;19.00;53.60;;;;;;218440;1292;22664;-67
2023/10/15 23:09:44;;;;;;;;;;;18.90;53.40;;;;;;218125;1292;22789;-63
2023/10/15 23:14:47;;;;;;;;;;;18.90;53.50;;;;;;218280;1292;22668;-63
2023/10/15 23:19:49;;;;;;;;;;;18.90;53.50;;;;;;218485;1283;22469;-62
2023/10/15 23:24:52;;;;;;;;;;;18.90;53.50;;;;;;217884;1295;25340;-64
2023/10/15 23:29:55;;;;;;;;;;;18.90;53.50;;;;;;218362;1293;22542;-63
2023/10/15 23:34:58;;;;;;;;;;;18.90;53.50;;;;;;218147;1295;23788;-62
2023/10/15 23:40:01;;;;;;;;;;;18.90;53.50;;;;;;218198;1295;22680;-61
2023/10/15 23:45:06;;;;;;;;;;;18.90;53.40;;;;;;218092;1292;22547;-62
2023/10/15 23:50:18;;;;;;;;;;;18.90;53.40;;;;;;218163;1295;25353;-62
2023/10/15 23:55:22;;;;;;;;;;;18.90;53.40;;;;;;217957;1295;22622;-63
